sensor_id;sensor_type;location;lat;lon;timestamp;P1;durP1;ratioP1;P2;durP2;ratioP2
51862;SDS011;37900;52.996;6.278;2023-02-28T00:03:39;4.72;;;2.30;;
51862;SDS011;37900;52.996;6.278;2023-02-28T00:06:05;3.33;;;2.10;;
51862;SDS011;37900;52.996;6.278;2023-02-28T00:08:32;3.92;;;1.95;;
51862;SDS011;37900;52.996;6.278;2023-02-28T00:11:05;5.22;;;2.33;;
51862;SDS011;37900;52.996;6.278;2023-02-28T00:13:33;3.75;;;2.45;;
51862;SDS011;37900;52.996;6.278;2023-02-28T00:16:02;5.18;;;2.17;;
51862;SDS011;37900;52.996;6.278;2023-02-28T00:18:30;3.63;;;2.28;;
51862;SDS011;37900;52.996;6.278;2023-02-28T00:20:55;5.43;;;2.17;;
51862;SDS011;37900;52.996;6.278;2023-02-28T00:23:21;6.63;;;2.70;;
51862;SDS011;37900;52.996;6.278;2023-02-28T00:25:47;4.65;;;1.80;;
51862;SDS011;37900;52.996;6.278;2023-02-28T00:28:13;4.15;;;2.28;;
51862;SDS011;37900;52.996;6.278;2023-02-28T00:30:39;6.88;;;2.40;;
51862;SDS011;37900;52.996;6.278;2023-02-28T00:33:05;4.93;;;2.40;;
51862;SDS011;37900;52.996;6.278;2023-02-28T00:35:30;6.72;;;2.58;;
51862;SDS011;37900;52.996;6.278;2023-02-28T00:37:56;4.07;;;2.40;;
51862;SDS011;37900;52.996;6.278;2023-02-28T00:40:22;2.78;;;1.92;;
51862;SDS011;37900;52.996;6.278;2023-02-28T00:42:47;5.07;;;2.45;;
51862;SDS011;37900;52.996;6.278;2023-02-28T00:45:13;4.45;;;2.20;;
51862;SDS011;37900;52.996;6.278;2023-02-28T00:47:39;5.55;;;2.45;;
51862;SDS011;37900;52.996;6.278;2023-02-28T00:50:05;3.80;;;1.98;;
51862;SDS011;37900;52.996;6.278;2023-02-28T00:52:31;4.90;;;2.17;;
51862;SDS011;37900;52.996;6.278;2023-02-28T00:54:57;4.45;;;2.28;;
51862;SDS011;37900;52.996;6.278;2023-02-28T00:57:23;4.30;;;2.45;;
51862;SDS011;37900;52.996;6.278;2023-02-28T00:59:48;3.67;;;2.08;;
51862;SDS011;37900;52.996;6.278;2023-02-28T01:02:14;3.40;;;1.98;;
51862;SDS011;37900;52.996;6.278;2023-02-28T01:04:40;3.72;;;2.47;;
51862;SDS011;37900;52.996;6.278;2023-02-28T01:07:06;4.45;;;2.30;;
51862;SDS011;37900;52.996;6.278;2023-02-28T01:09:31;3.25;;;1.75;;
51862;SDS011;37900;52.996;6.278;2023-02-28T01:11:57;4.18;;;2.17;;
51862;SDS011;37900;52.996;6.278;2023-02-28T01:14:23;4.15;;;1.70;;
51862;SDS011;37900;52.996;6.278;2023-02-28T01:16:49;4.38;;;2.08;;
51862;SDS011;37900;52.996;6.278;2023-02-28T01:19:14;3.78;;;1.75;;
51862;SDS011;37900;52.996;6.278;2023-02-28T01:21:40;3.45;;;1.83;;
51862;SDS011;37900;52.996;6.278;2023-02-28T01:24:06;3.08;;;1.77;;
51862;SDS011;37900;52.996;6.278;2023-02-28T01:26:32;5.47;;;2.85;;
51862;SDS011;37900;52.996;6.278;2023-02-28T01:28:58;4.68;;;2.42;;
51862;SDS011;37900;52.996;6.278;2023-02-28T01:31:24;4.35;;;1.75;;
51862;SDS011;37900;52.996;6.278;2023-02-28T01:33:50;3.50;;;2.17;;
51862;SDS011;37900;52.996;6.278;2023-02-28T01:36:20;4.13;;;1.90;;
51862;SDS011;37900;52.996;6.278;2023-02-28T01:38:47;4.50;;;2.05;;
51862;SDS011;37900;52.996;6.278;2023-02-28T01:41:21;3.15;;;1.85;;
51862;SDS011;37900;52.996;6.278;2023-02-28T01:46:15;3.25;;;1.88;;
51862;SDS011;37900;52.996;6.278;2023-02-28T01:48:45;2.78;;;1.88;;
51862;SDS011;37900;52.996;6.278;2023-02-28T01:51:26;3.85;;;1.63;;
51862;SDS011;37900;52.996;6.278;2023-02-28T01:54:09;2.72;;;1.90;;
51862;SDS011;37900;52.996;6.278;2023-02-28T01:56:39;3.40;;;2.00;;
51862;SDS011;37900;52.996;6.278;2023-02-28T01:59:10;4.60;;;1.63;;
51862;SDS011;37900;52.996;6.278;2023-02-28T02:01:39;3.70;;;1.77;;
51862;SDS011;37900;52.996;6.278;2023-02-28T02:04:05;2.90;;;1.83;;
51862;SDS011;37900;52.996;6.278;2023-02-28T02:06:34;3.33;;;1.73;;
51862;SDS011;37900;52.996;6.278;2023-02-28T02:09:04;2.45;;;1.42;;
51862;SDS011;37900;52.996;6.278;2023-02-28T02:11:31;3.85;;;1.70;;
51862;SDS011;37900;52.996;6.278;2023-02-28T02:16:51;3.83;;;1.42;;
51862;SDS011;37900;52.996;6.278;2023-02-28T02:31:56;4.20;;;1.80;;
51862;SDS011;37900;52.996;6.278;2023-02-28T02:37:24;3.30;;;1.70;;
51862;SDS011;37900;52.996;6.278;2023-02-28T02:45:31;3.22;;;1.73;;
51862;SDS011;37900;52.996;6.278;2023-02-28T02:48:01;2.80;;;1.98;;
51862;SDS011;37900;52.996;6.278;2023-02-28T02:50:34;1.98;;;1.40;;
51862;SDS011;37900;52.996;6.278;2023-02-28T02:53:03;2.53;;;1.67;;
51862;SDS011;37900;52.996;6.278;2023-02-28T02:55:32;2.55;;;1.70;;
51862;SDS011;37900;52.996;6.278;2023-02-28T02:58:03;3.22;;;1.52;;
51862;SDS011;37900;52.996;6.278;2023-02-28T03:00:34;3.33;;;1.60;;
51862;SDS011;37900;52.996;6.278;2023-02-28T03:03:03;3.58;;;1.77;;
51862;SDS011;37900;52.996;6.278;2023-02-28T03:05:50;3.38;;;1.70;;
51862;SDS011;37900;52.996;6.278;2023-02-28T03:08:16;3.72;;;1.85;;
51862;SDS011;37900;52.996;6.278;2023-02-28T03:10:43;3.72;;;1.75;;
51862;SDS011;37900;52.996;6.278;2023-02-28T03:16:05;2.13;;;1.58;;
51862;SDS011;37900;52.996;6.278;2023-02-28T03:21:49;2.28;;;1.50;;
51862;SDS011;37900;52.996;6.278;2023-02-28T03:24:32;2.90;;;1.85;;
51862;SDS011;37900;52.996;6.278;2023-02-28T03:27:34;2.83;;;1.80;;
51862;SDS011;37900;52.996;6.278;2023-02-28T03:32:58;2.95;;;1.60;;
51862;SDS011;37900;52.996;6.278;2023-02-28T03:35:50;2.78;;;1.75;;
51862;SDS011;37900;52.996;6.278;2023-02-28T03:38:38;3.00;;;1.73;;
51862;SDS011;37900;52.996;6.278;2023-02-28T03:41:15;2.15;;;1.40;;
51862;SDS011;37900;52.996;6.278;2023-02-28T03:43:53;2.08;;;1.30;;
51862;SDS011;37900;52.996;6.278;2023-02-28T03:46:25;2.78;;;1.88;;
51862;SDS011;37900;52.996;6.278;2023-02-28T03:48:56;3.15;;;1.50;;
51862;SDS011;37900;52.996;6.278;2023-02-28T03:51:27;2.40;;;1.50;;
51862;SDS011;37900;52.996;6.278;2023-02-28T03:53:56;2.15;;;1.42;;
51862;SDS011;37900;52.996;6.278;2023-02-28T03:56:33;1.60;;;1.38;;
51862;SDS011;37900;52.996;6.278;2023-02-28T04:01:41;2.78;;;1.42;;
51862;SDS011;37900;52.996;6.278;2023-02-28T04:04:09;2.50;;;1.52;;
51862;SDS011;37900;52.996;6.278;2023-02-28T04:06:36;2.72;;;1.48;;
51862;SDS011;37900;52.996;6.278;2023-02-28T04:09:03;1.85;;;1.33;;
51862;SDS011;37900;52.996;6.278;2023-02-28T04:11:33;1.95;;;1.20;;
51862;SDS011;37900;52.996;6.278;2023-02-28T04:14:04;2.17;;;1.25;;
51862;SDS011;37900;52.996;6.278;2023-02-28T04:16:34;1.90;;;1.50;;
51862;SDS011;37900;52.996;6.278;2023-02-28T04:19:02;1.90;;;1.30;;
51862;SDS011;37900;52.996;6.278;2023-02-28T04:21:31;2.38;;;1.52;;
51862;SDS011;37900;52.996;6.278;2023-02-28T04:23:58;3.08;;;1.55;;
51862;SDS011;37900;52.996;6.278;2023-02-28T04:26:35;3.13;;;1.80;;
51862;SDS011;37900;52.996;6.278;2023-02-28T04:29:02;2.15;;;1.17;;
51862;SDS011;37900;52.996;6.278;2023-02-28T04:31:29;2.22;;;1.42;;
51862;SDS011;37900;52.996;6.278;2023-02-28T04:33:55;2.05;;;1.50;;
51862;SDS011;37900;52.996;6.278;2023-02-28T04:36:21;1.70;;;1.45;;
51862;SDS011;37900;52.996;6.278;2023-02-28T04:38:48;1.75;;;1.23;;
51862;SDS011;37900;52.996;6.278;2023-02-28T04:41:14;2.25;;;1.85;;
51862;SDS011;37900;52.996;6.278;2023-02-28T04:43:40;2.38;;;1.20;;
51862;SDS011;37900;52.996;6.278;2023-02-28T04:46:06;1.63;;;1.33;;
51862;SDS011;37900;52.996;6.278;2023-02-28T04:48:34;2.15;;;1.55;;
51862;SDS011;37900;52.996;6.278;2023-02-28T04:51:11;1.65;;;1.00;;
51862;SDS011;37900;52.996;6.278;2023-02-28T04:53:39;2.25;;;1.27;;
51862;SDS011;37900;52.996;6.278;2023-02-28T04:58:32;2.42;;;1.48;;
51862;SDS011;37900;52.996;6.278;2023-02-28T05:01:02;1.33;;;1.23;;
51862;SDS011;37900;52.996;6.278;2023-02-28T05:03:41;2.80;;;1.52;;
51862;SDS011;37900;52.996;6.278;2023-02-28T05:06:08;1.65;;;1.20;;
51862;SDS011;37900;52.996;6.278;2023-02-28T05:08:34;2.03;;;1.33;;
51862;SDS011;37900;52.996;6.278;2023-02-28T05:11:00;1.65;;;1.30;;
51862;SDS011;37900;52.996;6.278;2023-02-28T05:13:27;2.37;;;1.50;;
51862;SDS011;37900;52.996;6.278;2023-02-28T05:15:53;2.08;;;1.45;;
51862;SDS011;37900;52.996;6.278;2023-02-28T05:18:19;1.83;;;1.30;;
51862;SDS011;37900;52.996;6.278;2023-02-28T05:20:44;1.40;;;1.30;;
51862;SDS011;37900;52.996;6.278;2023-02-28T05:23:13;3.05;;;1.70;;
51862;SDS011;37900;52.996;6.278;2023-02-28T05:25:40;1.60;;;1.25;;
51862;SDS011;37900;52.996;6.278;2023-02-28T05:28:07;2.35;;;1.40;;
51862;SDS011;37900;52.996;6.278;2023-02-28T05:30:33;2.38;;;1.00;;
51862;SDS011;37900;52.996;6.278;2023-02-28T05:32:59;1.33;;;1.00;;
51862;SDS011;37900;52.996;6.278;2023-02-28T05:35:25;2.55;;;1.23;;
51862;SDS011;37900;52.996;6.278;2023-02-28T05:37:51;1.38;;;1.10;;
51862;SDS011;37900;52.996;6.278;2023-02-28T05:40:17;1.52;;;1.23;;
51862;SDS011;37900;52.996;6.278;2023-02-28T05:42:45;2.08;;;1.27;;
51862;SDS011;37900;52.996;6.278;2023-02-28T05:45:12;2.47;;;1.83;;
51862;SDS011;37900;52.996;6.278;2023-02-28T05:47:38;2.50;;;1.15;;
51862;SDS011;37900;52.996;6.278;2023-02-28T05:50:04;1.52;;;1.20;;
51862;SDS011;37900;52.996;6.278;2023-02-28T05:52:30;3.13;;;1.30;;
51862;SDS011;37900;52.996;6.278;2023-02-28T05:54:56;1.48;;;1.00;;
51862;SDS011;37900;52.996;6.278;2023-02-28T05:57:22;1.30;;;1.00;;
51862;SDS011;37900;52.996;6.278;2023-02-28T05:59:47;1.52;;;1.00;;
51862;SDS011;37900;52.996;6.278;2023-02-28T06:02:14;2.40;;;1.13;;
51862;SDS011;37900;52.996;6.278;2023-02-28T06:04:41;1.63;;;1.10;;
51862;SDS011;37900;52.996;6.278;2023-02-28T06:07:08;1.80;;;1.50;;
51862;SDS011;37900;52.996;6.278;2023-02-28T06:09:34;1.65;;;0.90;;
51862;SDS011;37900;52.996;6.278;2023-02-28T06:12:01;1.20;;;1.02;;
51862;SDS011;37900;52.996;6.278;2023-02-28T06:14:31;1.83;;;1.23;;
51862;SDS011;37900;52.996;6.278;2023-02-28T06:16:58;1.30;;;1.00;;
51862;SDS011;37900;52.996;6.278;2023-02-28T06:19:24;1.13;;;1.02;;
51862;SDS011;37900;52.996;6.278;2023-02-28T06:21:51;1.63;;;1.10;;
51862;SDS011;37900;52.996;6.278;2023-02-28T06:24:21;1.75;;;1.20;;
51862;SDS011;37900;52.996;6.278;2023-02-28T06:26:47;1.67;;;1.02;;
51862;SDS011;37900;52.996;6.278;2023-02-28T06:29:14;2.22;;;1.25;;
51862;SDS011;37900;52.996;6.278;2023-02-28T06:31:44;1.65;;;1.00;;
51862;SDS011;37900;52.996;6.278;2023-02-28T06:34:10;2.20;;;1.33;;
51862;SDS011;37900;52.996;6.278;2023-02-28T06:36:39;1.58;;;1.10;;
51862;SDS011;37900;52.996;6.278;2023-02-28T06:39:06;1.17;;;1.08;;
51862;SDS011;37900;52.996;6.278;2023-02-28T06:41:32;1.13;;;0.90;;
51862;SDS011;37900;52.996;6.278;2023-02-28T06:44:03;1.85;;;1.23;;
51862;SDS011;37900;52.996;6.278;2023-02-28T06:46:30;2.33;;;1.23;;
51862;SDS011;37900;52.996;6.278;2023-02-28T06:48:57;1.42;;;1.13;;
51862;SDS011;37900;52.996;6.278;2023-02-28T06:51:23;1.30;;;0.98;;
51862;SDS011;37900;52.996;6.278;2023-02-28T06:53:49;2.53;;;1.15;;
51862;SDS011;37900;52.996;6.278;2023-02-28T06:56:16;1.55;;;1.10;;
51862;SDS011;37900;52.996;6.278;2023-02-28T07:01:13;1.63;;;1.02;;
51862;SDS011;37900;52.996;6.278;2023-02-28T07:03:39;1.80;;;1.15;;
51862;SDS011;37900;52.996;6.278;2023-02-28T07:06:05;1.98;;;1.05;;
51862;SDS011;37900;52.996;6.278;2023-02-28T07:08:32;2.15;;;1.30;;
51862;SDS011;37900;52.996;6.278;2023-02-28T07:10:58;1.08;;;1.00;;
51862;SDS011;37900;52.996;6.278;2023-02-28T07:13:24;1.40;;;1.30;;
51862;SDS011;37900;52.996;6.278;2023-02-28T07:15:57;2.10;;;1.13;;
51862;SDS011;37900;52.996;6.278;2023-02-28T07:18:28;2.92;;;1.45;;
51862;SDS011;37900;52.996;6.278;2023-02-28T07:20:53;2.83;;;1.27;;
51862;SDS011;37900;52.996;6.278;2023-02-28T07:23:20;2.50;;;1.13;;
51862;SDS011;37900;52.996;6.278;2023-02-28T07:25:46;4.30;;;1.93;;
51862;SDS011;37900;52.996;6.278;2023-02-28T07:28:13;2.08;;;1.33;;
51862;SDS011;37900;52.996;6.278;2023-02-28T07:30:40;3.95;;;1.42;;
51862;SDS011;37900;52.996;6.278;2023-02-28T07:33:06;2.33;;;1.38;;
51862;SDS011;37900;52.996;6.278;2023-02-28T07:35:32;1.90;;;1.73;;
51862;SDS011;37900;52.996;6.278;2023-02-28T07:37:58;3.47;;;1.35;;
51862;SDS011;37900;52.996;6.278;2023-02-28T07:40:24;4.03;;;1.52;;
51862;SDS011;37900;52.996;6.278;2023-02-28T07:42:51;1.73;;;1.10;;
51862;SDS011;37900;52.996;6.278;2023-02-28T07:45:17;3.85;;;1.13;;
51862;SDS011;37900;52.996;6.278;2023-02-28T07:47:43;3.25;;;1.10;;
51862;SDS011;37900;52.996;6.278;2023-02-28T07:50:10;1.65;;;1.25;;
51862;SDS011;37900;52.996;6.278;2023-02-28T07:52:37;1.60;;;1.20;;
51862;SDS011;37900;52.996;6.278;2023-02-28T07:55:07;2.67;;;1.50;;
51862;SDS011;37900;52.996;6.278;2023-02-28T07:57:34;2.40;;;1.63;;
51862;SDS011;37900;52.996;6.278;2023-02-28T08:00:00;2.08;;;1.38;;
51862;SDS011;37900;52.996;6.278;2023-02-28T08:02:26;1.88;;;1.42;;
51862;SDS011;37900;52.996;6.278;2023-02-28T08:04:52;1.88;;;1.25;;
51862;SDS011;37900;52.996;6.278;2023-02-28T08:07:17;5.35;;;1.50;;
51862;SDS011;37900;52.996;6.278;2023-02-28T08:09:43;2.72;;;1.50;;
51862;SDS011;37900;52.996;6.278;2023-02-28T08:12:10;2.58;;;1.70;;
51862;SDS011;37900;52.996;6.278;2023-02-28T08:14:36;2.30;;;1.43;;
51862;SDS011;37900;52.996;6.278;2023-02-28T08:17:03;2.95;;;1.60;;
51862;SDS011;37900;52.996;6.278;2023-02-28T08:19:29;2.22;;;1.27;;
51862;SDS011;37900;52.996;6.278;2023-02-28T08:21:55;1.63;;;1.10;;
51862;SDS011;37900;52.996;6.278;2023-02-28T08:24:21;2.75;;;1.30;;
51862;SDS011;37900;52.996;6.278;2023-02-28T08:26:47;2.20;;;1.48;;
51862;SDS011;37900;52.996;6.278;2023-02-28T08:29:12;2.47;;;1.60;;
51862;SDS011;37900;52.996;6.278;2023-02-28T08:31:38;2.88;;;1.42;;
51862;SDS011;37900;52.996;6.278;2023-02-28T08:34:05;3.05;;;1.33;;
51862;SDS011;37900;52.996;6.278;2023-02-28T08:36:36;2.78;;;1.65;;
51862;SDS011;37900;52.996;6.278;2023-02-28T08:39:02;2.15;;;1.42;;
51862;SDS011;37900;52.996;6.278;2023-02-28T08:41:28;2.75;;;1.20;;
51862;SDS011;37900;52.996;6.278;2023-02-28T08:43:54;1.63;;;1.30;;
51862;SDS011;37900;52.996;6.278;2023-02-28T08:46:20;3.70;;;1.50;;
51862;SDS011;37900;52.996;6.278;2023-02-28T08:48:45;5.40;;;2.42;;
51862;SDS011;37900;52.996;6.278;2023-02-28T08:51:12;2.85;;;1.48;;
51862;SDS011;37900;52.996;6.278;2023-02-28T08:53:41;3.65;;;1.45;;
51862;SDS011;37900;52.996;6.278;2023-02-28T08:56:13;2.03;;;1.33;;
51862;SDS011;37900;52.996;6.278;2023-02-28T08:58:41;1.88;;;1.45;;
51862;SDS011;37900;52.996;6.278;2023-02-28T09:01:09;3.33;;;1.30;;
51862;SDS011;37900;52.996;6.278;2023-02-28T09:03:38;3.42;;;1.50;;
51862;SDS011;37900;52.996;6.278;2023-02-28T09:06:04;2.15;;;1.30;;
51862;SDS011;37900;52.996;6.278;2023-02-28T09:08:30;1.80;;;1.30;;
51862;SDS011;37900;52.996;6.278;2023-02-28T09:10:56;1.65;;;1.23;;
51862;SDS011;37900;52.996;6.278;2023-02-28T09:13:23;1.27;;;1.15;;
51862;SDS011;37900;52.996;6.278;2023-02-28T09:15:50;1.02;;;0.93;;
51862;SDS011;37900;52.996;6.278;2023-02-28T09:18:16;2.83;;;1.60;;
51862;SDS011;37900;52.996;6.278;2023-02-28T09:20:42;1.95;;;1.17;;
51862;SDS011;37900;52.996;6.278;2023-02-28T09:23:09;1.70;;;1.27;;
51862;SDS011;37900;52.996;6.278;2023-02-28T09:25:37;1.95;;;1.27;;
51862;SDS011;37900;52.996;6.278;2023-02-28T09:28:03;1.83;;;1.17;;
51862;SDS011;37900;52.996;6.278;2023-02-28T09:30:29;2.67;;;1.40;;
51862;SDS011;37900;52.996;6.278;2023-02-28T09:32:55;1.95;;;1.40;;
51862;SDS011;37900;52.996;6.278;2023-02-28T09:35:22;2.60;;;1.35;;
51862;SDS011;37900;52.996;6.278;2023-02-28T09:40:17;2.17;;;1.70;;
51862;SDS011;37900;52.996;6.278;2023-02-28T09:42:48;2.13;;;1.30;;
51862;SDS011;37900;52.996;6.278;2023-02-28T09:45:19;1.40;;;1.10;;
51862;SDS011;37900;52.996;6.278;2023-02-28T09:47:59;1.48;;;1.08;;
51862;SDS011;37900;52.996;6.278;2023-02-28T09:50:37;1.23;;;1.08;;
51862;SDS011;37900;52.996;6.278;2023-02-28T09:53:13;1.77;;;1.15;;
51862;SDS011;37900;52.996;6.278;2023-02-28T09:55:49;0.68;;;0.68;;
51862;SDS011;37900;52.996;6.278;2023-02-28T09:58:26;1.92;;;1.25;;
51862;SDS011;37900;52.996;6.278;2023-02-28T10:01:42;1.95;;;1.25;;
51862;SDS011;37900;52.996;6.278;2023-02-28T10:06:37;1.55;;;1.10;;
51862;SDS011;37900;52.996;6.278;2023-02-28T10:09:16;1.88;;;1.05;;
51862;SDS011;37900;52.996;6.278;2023-02-28T10:11:59;1.05;;;0.90;;
51862;SDS011;37900;52.996;6.278;2023-02-28T10:14:29;5.00;;;1.60;;
51862;SDS011;37900;52.996;6.278;2023-02-28T10:16:59;2.28;;;1.20;;
51862;SDS011;37900;52.996;6.278;2023-02-28T10:22:36;1.90;;;1.13;;
51862;SDS011;37900;52.996;6.278;2023-02-28T10:25:24;1.67;;;1.00;;
51862;SDS011;37900;52.996;6.278;2023-02-28T10:27:52;1.65;;;1.10;;
51862;SDS011;37900;52.996;6.278;2023-02-28T10:30:22;1.55;;;1.35;;
51862;SDS011;37900;52.996;6.278;2023-02-28T10:32:52;1.77;;;1.25;;
51862;SDS011;37900;52.996;6.278;2023-02-28T10:35:23;2.00;;;1.27;;
51862;SDS011;37900;52.996;6.278;2023-02-28T10:37:53;2.47;;;1.27;;
51862;SDS011;37900;52.996;6.278;2023-02-28T10:56:00;1.70;;;0.80;;
51862;SDS011;37900;52.996;6.278;2023-02-28T10:58:31;2.20;;;1.40;;
51862;SDS011;37900;52.996;6.278;2023-02-28T11:03:44;1.80;;;1.30;;
51862;SDS011;37900;52.996;6.278;2023-02-28T11:06:15;1.48;;;1.10;;
51862;SDS011;37900;52.996;6.278;2023-02-28T11:08:48;1.75;;;0.80;;
51862;SDS011;37900;52.996;6.278;2023-02-28T11:11:16;2.17;;;1.10;;
51862;SDS011;37900;52.996;6.278;2023-02-28T11:13:44;3.47;;;1.30;;
51862;SDS011;37900;52.996;6.278;2023-02-28T11:16:12;0.80;;;0.77;;
51862;SDS011;37900;52.996;6.278;2023-02-28T11:21:19;1.77;;;1.10;;
51862;SDS011;37900;52.996;6.278;2023-02-28T11:23:49;3.30;;;1.42;;
51862;SDS011;37900;52.996;6.278;2023-02-28T11:26:34;3.20;;;1.17;;
51862;SDS011;37900;52.996;6.278;2023-02-28T11:34:44;2.80;;;1.10;;
51862;SDS011;37900;52.996;6.278;2023-02-28T11:39:39;1.92;;;0.90;;
51862;SDS011;37900;52.996;6.278;2023-02-28T11:45:08;1.85;;;1.23;;
51862;SDS011;37900;52.996;6.278;2023-02-28T11:47:56;1.25;;;1.15;;
51862;SDS011;37900;52.996;6.278;2023-02-28T11:53:22;1.90;;;1.10;;
51862;SDS011;37900;52.996;6.278;2023-02-28T12:03:58;1.88;;;1.02;;
51862;SDS011;37900;52.996;6.278;2023-02-28T12:10:03;1.77;;;0.80;;
51862;SDS011;37900;52.996;6.278;2023-02-28T12:18:05;1.17;;;1.00;;
51862;SDS011;37900;52.996;6.278;2023-02-28T12:20:49;1.42;;;1.05;;
51862;SDS011;37900;52.996;6.278;2023-02-28T12:26:31;1.45;;;0.88;;
51862;SDS011;37900;52.996;6.278;2023-02-28T12:32:30;2.30;;;1.02;;
51862;SDS011;37900;52.996;6.278;2023-02-28T12:34:56;1.80;;;1.10;;
51862;SDS011;37900;52.996;6.278;2023-02-28T12:37:29;1.55;;;1.00;;
51862;SDS011;37900;52.996;6.278;2023-02-28T12:40:05;1.23;;;0.70;;
51862;SDS011;37900;52.996;6.278;2023-02-28T12:42:42;1.25;;;0.70;;
51862;SDS011;37900;52.996;6.278;2023-02-28T12:45:31;1.02;;;0.75;;
51862;SDS011;37900;52.996;6.278;2023-02-28T12:48:01;1.00;;;0.73;;
51862;SDS011;37900;52.996;6.278;2023-02-28T12:50:31;0.75;;;0.70;;
51862;SDS011;37900;52.996;6.278;2023-02-28T12:55:43;1.73;;;1.10;;
51862;SDS011;37900;52.996;6.278;2023-02-28T13:09:17;1.73;;;0.65;;
51862;SDS011;37900;52.996;6.278;2023-02-28T13:11:45;1.20;;;0.97;;
51862;SDS011;37900;52.996;6.278;2023-02-28T13:17:01;3.35;;;0.82;;
51862;SDS011;37900;52.996;6.278;2023-02-28T13:19:40;0.93;;;0.70;;
51862;SDS011;37900;52.996;6.278;2023-02-28T13:22:19;0.70;;;0.70;;
51862;SDS011;37900;52.996;6.278;2023-02-28T13:25:49;1.15;;;1.00;;
51862;SDS011;37900;52.996;6.278;2023-02-28T13:27:58;0.73;;;0.73;;
51862;SDS011;37900;52.996;6.278;2023-02-28T13:35:48;2.05;;;0.85;;
51862;SDS011;37900;52.996;6.278;2023-02-28T13:38:32;1.85;;;1.00;;
51862;SDS011;37900;52.996;6.278;2023-02-28T14:05:26;1.35;;;0.70;;
51862;SDS011;37900;52.996;6.278;2023-02-28T14:07:58;1.13;;;0.93;;
51862;SDS011;37900;52.996;6.278;2023-02-28T14:10:30;0.68;;;0.52;;
51862;SDS011;37900;52.996;6.278;2023-02-28T14:13:00;0.65;;;0.55;;
51862;SDS011;37900;52.996;6.278;2023-02-28T14:17:59;0.85;;;0.70;;
51862;SDS011;37900;52.996;6.278;2023-02-28T14:20:29;1.20;;;0.68;;
51862;SDS011;37900;52.996;6.278;2023-02-28T14:23:07;1.05;;;0.77;;
51862;SDS011;37900;52.996;6.278;2023-02-28T14:31:41;1.02;;;0.80;;
51862;SDS011;37900;52.996;6.278;2023-02-28T14:34:35;1.85;;;0.65;;
51862;SDS011;37900;52.996;6.278;2023-02-28T14:37:10;0.80;;;0.70;;
51862;SDS011;37900;52.996;6.278;2023-02-28T14:39:41;0.52;;;0.52;;
51862;SDS011;37900;52.996;6.278;2023-02-28T14:42:28;0.65;;;0.50;;
51862;SDS011;37900;52.996;6.278;2023-02-28T14:45:03;1.27;;;0.85;;
51862;SDS011;37900;52.996;6.278;2023-02-28T14:47:30;1.20;;;0.85;;
51862;SDS011;37900;52.996;6.278;2023-02-28T14:49:58;1.33;;;0.98;;
51862;SDS011;37900;52.996;6.278;2023-02-28T14:54:54;0.93;;;0.73;;
51862;SDS011;37900;52.996;6.278;2023-02-28T14:57:23;1.83;;;0.70;;
51862;SDS011;37900;52.996;6.278;2023-02-28T14:59:59;0.65;;;0.60;;
51862;SDS011;37900;52.996;6.278;2023-02-28T15:02:29;0.90;;;0.80;;
51862;SDS011;37900;52.996;6.278;2023-02-28T15:04:57;0.85;;;0.70;;
51862;SDS011;37900;52.996;6.278;2023-02-28T15:07:24;1.33;;;0.70;;
51862;SDS011;37900;52.996;6.278;2023-02-28T15:18:07;6.00;;;1.40;;
51862;SDS011;37900;52.996;6.278;2023-02-28T15:20:40;2.92;;;1.17;;
51862;SDS011;37900;52.996;6.278;2023-02-28T15:23:08;2.30;;;1.02;;
51862;SDS011;37900;52.996;6.278;2023-02-28T15:25:35;1.80;;;1.38;;
51862;SDS011;37900;52.996;6.278;2023-02-28T15:28:01;1.23;;;1.13;;
51862;SDS011;37900;52.996;6.278;2023-02-28T15:30:28;3.22;;;0.95;;
51862;SDS011;37900;52.996;6.278;2023-02-28T15:33:33;1.52;;;1.15;;
51862;SDS011;37900;52.996;6.278;2023-02-28T15:35:51;1.30;;;1.05;;
51862;SDS011;37900;52.996;6.278;2023-02-28T15:38:39;2.65;;;1.20;;
51862;SDS011;37900;52.996;6.278;2023-02-28T15:41:04;2.10;;;0.90;;
51862;SDS011;37900;52.996;6.278;2023-02-28T15:43:36;29.30;;;1.88;;
51862;SDS011;37900;52.996;6.278;2023-02-28T15:46:07;1.35;;;0.80;;
51862;SDS011;37900;52.996;6.278;2023-02-28T15:48:50;1.73;;;1.00;;
51862;SDS011;37900;52.996;6.278;2023-02-28T15:51:22;1.35;;;0.90;;
51862;SDS011;37900;52.996;6.278;2023-02-28T15:54:00;1.30;;;0.90;;
51862;SDS011;37900;52.996;6.278;2023-02-28T15:58:58;3.35;;;1.27;;
51862;SDS011;37900;52.996;6.278;2023-02-28T16:01:31;2.35;;;1.30;;
51862;SDS011;37900;52.996;6.278;2023-02-28T16:04:03;2.78;;;1.00;;
51862;SDS011;37900;52.996;6.278;2023-02-28T16:06:35;2.40;;;1.10;;
51862;SDS011;37900;52.996;6.278;2023-02-28T16:09:03;4.13;;;1.45;;
51862;SDS011;37900;52.996;6.278;2023-02-28T16:11:33;1.95;;;0.93;;
51862;SDS011;37900;52.996;6.278;2023-02-28T16:14:02;1.70;;;1.05;;
51862;SDS011;37900;52.996;6.278;2023-02-28T16:16:28;6.30;;;1.40;;
51862;SDS011;37900;52.996;6.278;2023-02-28T16:21:21;0.68;;;0.68;;
51862;SDS011;37900;52.996;6.278;2023-02-28T16:23:47;1.65;;;1.15;;
51862;SDS011;37900;52.996;6.278;2023-02-28T16:26:18;3.53;;;1.23;;
51862;SDS011;37900;52.996;6.278;2023-02-28T16:28:46;1.48;;;1.10;;
51862;SDS011;37900;52.996;6.278;2023-02-28T16:31:12;2.92;;;1.23;;
51862;SDS011;37900;52.996;6.278;2023-02-28T16:33:41;2.42;;;0.93;;
51862;SDS011;37900;52.996;6.278;2023-02-28T16:36:12;4.15;;;1.13;;
51862;SDS011;37900;52.996;6.278;2023-02-28T16:38:43;2.25;;;0.95;;
51862;SDS011;37900;52.996;6.278;2023-02-28T16:41:11;3.47;;;1.20;;
51862;SDS011;37900;52.996;6.278;2023-02-28T16:43:43;2.67;;;1.20;;
51862;SDS011;37900;52.996;6.278;2023-02-28T16:46:10;4.45;;;1.30;;
51862;SDS011;37900;52.996;6.278;2023-02-28T16:48:37;2.47;;;1.05;;
51862;SDS011;37900;52.996;6.278;2023-02-28T16:51:04;3.30;;;1.50;;
51862;SDS011;37900;52.996;6.278;2023-02-28T16:53:30;1.30;;;1.08;;
51862;SDS011;37900;52.996;6.278;2023-02-28T16:55:56;2.13;;;0.87;;
51862;SDS011;37900;52.996;6.278;2023-02-28T16:58:22;2.20;;;0.98;;
51862;SDS011;37900;52.996;6.278;2023-02-28T17:00:50;3.50;;;1.48;;
51862;SDS011;37900;52.996;6.278;2023-02-28T17:03:22;2.92;;;1.00;;
51862;SDS011;37900;52.996;6.278;2023-02-28T17:05:49;2.50;;;1.30;;
51862;SDS011;37900;52.996;6.278;2023-02-28T17:08:15;2.75;;;0.98;;
51862;SDS011;37900;52.996;6.278;2023-02-28T17:10:41;1.38;;;1.20;;
51862;SDS011;37900;52.996;6.278;2023-02-28T17:13:07;2.55;;;1.30;;
51862;SDS011;37900;52.996;6.278;2023-02-28T17:15:34;2.83;;;1.00;;
51862;SDS011;37900;52.996;6.278;2023-02-28T17:20:27;1.50;;;1.00;;
51862;SDS011;37900;52.996;6.278;2023-02-28T17:22:53;1.75;;;1.02;;
51862;SDS011;37900;52.996;6.278;2023-02-28T17:25:21;2.00;;;0.70;;
51862;SDS011;37900;52.996;6.278;2023-02-28T17:27:48;1.90;;;1.20;;
51862;SDS011;37900;52.996;6.278;2023-02-28T17:32:40;1.25;;;1.08;;
51862;SDS011;37900;52.996;6.278;2023-02-28T17:35:06;2.00;;;1.20;;
51862;SDS011;37900;52.996;6.278;2023-02-28T17:37:32;3.22;;;1.27;;
51862;SDS011;37900;52.996;6.278;2023-02-28T17:39:58;2.85;;;1.20;;
51862;SDS011;37900;52.996;6.278;2023-02-28T17:42:24;1.85;;;1.10;;
51862;SDS011;37900;52.996;6.278;2023-02-28T17:44:49;2.33;;;1.27;;
51862;SDS011;37900;52.996;6.278;2023-02-28T17:47:15;2.85;;;1.60;;
51862;SDS011;37900;52.996;6.278;2023-02-28T17:49:41;1.67;;;1.10;;
51862;SDS011;37900;52.996;6.278;2023-02-28T17:52:07;2.60;;;0.90;;
51862;SDS011;37900;52.996;6.278;2023-02-28T17:54:33;3.03;;;1.10;;
51862;SDS011;37900;52.996;6.278;2023-02-28T17:56:59;2.65;;;1.13;;
51862;SDS011;37900;52.996;6.278;2023-02-28T17:59:25;4.28;;;1.40;;
51862;SDS011;37900;52.996;6.278;2023-02-28T18:01:58;2.03;;;1.20;;
51862;SDS011;37900;52.996;6.278;2023-02-28T18:04:24;1.95;;;1.40;;
51862;SDS011;37900;52.996;6.278;2023-02-28T18:06:52;2.13;;;1.02;;
51862;SDS011;37900;52.996;6.278;2023-02-28T18:09:19;2.72;;;1.25;;